createdAt,value
2022-09-28T00:00:53.979Z,23.10
2022-09-28T00:03:57.949Z,23.00
2022-09-28T00:06:59.392Z,23.00
2022-09-28T00:10:00.628Z,23.20
2022-09-28T00:13:02.699Z,22.70
2022-09-28T00:16:08.201Z,23.20
2022-09-28T00:19:10.475Z,23.20
2022-09-28T00:22:11.854Z,22.80
2022-09-28T00:25:13.295Z,22.80
2022-09-28T00:28:15.276Z,23.10
2022-09-28T00:31:17.221Z,23.00
2022-09-28T00:34:22.091Z,22.90
2022-09-28T00:37:23.770Z,22.90
2022-09-28T00:40:25.225Z,22.90
2022-09-28T00:43:27.514Z,22.90
2022-09-28T00:46:33.574Z,22.90
2022-09-28T00:49:43.974Z,23.10
2022-09-28T00:52:48.392Z,23.00
2022-09-28T00:55:53.897Z,23.10
2022-09-28T00:58:58.838Z,23.10
2022-09-28T01:02:00.880Z,23.10
2022-09-28T01:05:04.850Z,22.80
2022-09-28T01:08:08.223Z,22.60
2022-09-28T01:11:10.123Z,23.10
2022-09-28T01:14:15.015Z,22.80
2022-09-28T01:17:24.605Z,23.00
2022-09-28T01:20:48.497Z,23.10
2022-09-28T01:24:08.940Z,22.70
2022-09-28T01:27:14.920Z,23.20
2022-09-28T01:30:18.424Z,22.90
2022-09-28T01:33:24.296Z,23.00
2022-09-28T01:36:36.211Z,23.00
2022-09-28T01:39:42.592Z,23.20
2022-09-28T01:42:49.816Z,23.10
2022-09-28T01:45:55.082Z,23.20
2022-09-28T01:48:58.298Z,22.80
2022-09-28T01:52:04.039Z,23.00
2022-09-28T01:55:11.241Z,22.90
2022-09-28T01:58:18.272Z,22.90
2022-09-28T02:01:27.414Z,23.10
2022-09-28T02:04:34.301Z,23.00
2022-09-28T02:07:40.046Z,22.50
2022-09-28T02:10:47.748Z,22.90
2022-09-28T02:13:54.968Z,22.70
2022-09-28T02:16:57.460Z,23.00
2022-09-28T02:20:02.182Z,23.00
2022-09-28T02:23:04.666Z,23.10
2022-09-28T02:26:11.395Z,22.90
2022-09-28T02:29:13.564Z,23.00
2022-09-28T02:32:16.258Z,22.70
2022-09-28T02:35:21.118Z,23.00
2022-09-28T02:38:22.861Z,22.90
2022-09-28T02:41:36.321Z,23.00
2022-09-28T02:44:49.472Z,22.80
2022-09-28T02:48:02.693Z,23.00
2022-09-28T02:51:15.724Z,23.00
2022-09-28T02:54:32.013Z,23.00
2022-09-28T02:57:47.597Z,22.50
2022-09-28T03:00:55.620Z,22.70
2022-09-28T03:04:04.004Z,22.90
2022-09-28T03:07:10.150Z,22.90
2022-09-28T03:10:19.273Z,22.70
2022-09-28T03:13:21.222Z,22.90
2022-09-28T03:16:23.415Z,22.90
2022-09-28T03:19:29.556Z,22.80
2022-09-28T03:22:31.227Z,22.90
2022-09-28T03:25:32.718Z,22.60
2022-09-28T03:28:35.471Z,23.00
2022-09-28T03:31:38.095Z,23.00
2022-09-28T03:34:39.672Z,23.10
2022-09-28T03:37:40.950Z,23.10
2022-09-28T03:40:43.018Z,22.90
2022-09-28T03:43:44.335Z,22.90
2022-09-28T03:46:48.570Z,23.00
2022-09-28T03:49:50.339Z,23.00
2022-09-28T03:52:51.778Z,22.70
2022-09-28T03:55:56.380Z,22.60
2022-09-28T03:58:58.015Z,22.80
2022-09-28T04:02:01.314Z,22.90
2022-09-28T04:05:03.153Z,23.00
2022-09-28T04:08:04.646Z,22.80
2022-09-28T04:11:06.286Z,22.80
2022-09-28T04:14:08.497Z,22.40
2022-09-28T04:17:11.079Z,22.80
2022-09-28T04:20:12.901Z,22.40
2022-09-28T04:23:20.782Z,23.20
2022-09-28T04:26:24.182Z,22.90
2022-09-28T04:29:25.525Z,22.60
2022-09-28T04:32:31.145Z,22.50
2022-09-28T04:35:32.601Z,22.60
2022-09-28T04:38:51.809Z,22.90
2022-09-28T04:41:55.083Z,23.00
2022-09-28T04:44:57.974Z,23.00
2022-09-28T04:48:00.201Z,22.80
2022-09-28T04:51:20.383Z,22.70
2022-09-28T04:54:22.220Z,22.80
2022-09-28T04:57:26.905Z,23.00
2022-09-28T05:00:32.995Z,23.10
2022-09-28T05:03:43.257Z,22.90
2022-09-28T05:06:56.613Z,22.50
2022-09-28T05:10:00.759Z,22.70
2022-09-28T05:13:02.795Z,22.60
2022-09-28T05:16:05.537Z,22.90
2022-09-28T05:19:13.739Z,22.70
2022-09-28T05:22:16.236Z,22.50
2022-09-28T05:25:20.997Z,22.50
2022-09-28T05:28:35.478Z,22.90
2022-09-28T05:31:50.390Z,22.80
2022-09-28T05:35:07.061Z,22.50
2022-09-28T05:38:15.813Z,22.50
2022-09-28T05:41:18.343Z,22.70
2022-09-28T05:44:20.224Z,22.80
2022-09-28T05:47:24.776Z,22.40
2022-09-28T05:50:26.887Z,22.70
2022-09-28T05:53:28.462Z,22.70
2022-09-28T05:56:32.360Z,22.90
2022-09-28T05:59:35.342Z,22.60
2022-09-28T06:02:37.119Z,22.50
2022-09-28T06:05:40.557Z,22.60
2022-09-28T06:08:45.376Z,22.80
2022-09-28T06:12:01.711Z,22.50
2022-09-28T06:15:12.857Z,22.50
2022-09-28T06:18:14.598Z,22.80
2022-09-28T06:21:26.870Z,22.40
2022-09-28T06:24:28.621Z,22.90
2022-09-28T06:27:30.383Z,22.50
2022-09-28T06:30:34.211Z,22.80
2022-09-28T06:33:37.806Z,22.40
2022-09-28T06:36:41.036Z,22.50
2022-09-28T06:39:43.487Z,22.70
2022-09-28T06:42:54.118Z,22.40
2022-09-28T06:46:15.667Z,22.70
2022-09-28T06:49:37.006Z,22.70
2022-09-28T06:52:53.793Z,22.60
2022-09-28T06:56:15.336Z,22.80
2022-09-28T06:59:16.908Z,22.80
2022-09-28T07:02:19.457Z,22.90
2022-09-28T07:05:40.612Z,22.40
2022-09-28T07:09:11.274Z,22.70
2022-09-28T07:12:31.431Z,22.90
2022-09-28T07:15:37.302Z,22.70
2022-09-28T07:18:39.734Z,22.60
2022-09-28T07:21:41.275Z,22.90
2022-09-28T07:24:44.136Z,23.00
2022-09-28T07:28:01.847Z,23.20
2022-09-28T07:31:13.039Z,22.80
2022-09-28T07:34:30.619Z,22.80
2022-09-28T07:37:39.088Z,22.60
2022-09-28T07:40:58.088Z,22.70
2022-09-28T07:44:05.303Z,22.90
2022-09-28T07:47:08.717Z,22.70
2022-09-28T07:50:30.338Z,22.50
2022-09-28T07:53:37.692Z,23.00
2022-09-28T07:56:50.990Z,23.10
2022-09-28T08:00:11.763Z,23.20
2022-09-28T08:03:19.052Z,23.10
2022-09-28T08:06:20.734Z,23.00
2022-09-28T08:09:23.023Z,23.20
2022-09-28T08:12:46.442Z,22.80
2022-09-28T08:16:07.584Z,23.20
2022-09-28T08:19:25.312Z,23.00
2022-09-28T08:22:31.340Z,22.90
2022-09-28T08:25:37.450Z,22.90
2022-09-28T08:28:42.052Z,23.30
2022-09-28T08:32:05.486Z,23.20
2022-09-28T08:35:15.900Z,23.30
2022-09-28T08:38:30.350Z,23.30
2022-09-28T08:42:01.464Z,23.30
2022-09-28T08:45:23.275Z,23.40
2022-09-28T08:48:56.941Z,23.50
2022-09-28T08:52:25.602Z,23.50
2022-09-28T08:55:36.522Z,23.40
2022-09-28T08:58:42.804Z,23.30
2022-09-28T09:01:57.227Z,23.30
2022-09-28T09:05:03.262Z,23.40
2022-09-28T09:08:39.150Z,23.50
2022-09-28T09:11:51.699Z,23.30
2022-09-28T09:15:10.531Z,23.40
2022-09-28T09:18:25.293Z,23.50
2022-09-28T09:21:40.833Z,23.20
2022-09-28T09:24:49.305Z,23.40
2022-09-28T09:28:08.658Z,23.60
2022-09-28T09:31:26.388Z,23.40
2022-09-28T09:34:54.558Z,23.20
2022-09-28T09:38:31.461Z,23.20
2022-09-28T09:42:09.782Z,23.30
2022-09-28T09:45:47.827Z,22.90
2022-09-28T09:49:12.667Z,23.50
2022-09-28T09:52:21.321Z,23.50
2022-09-28T09:55:30.287Z,23.50
2022-09-28T09:58:54.079Z,23.50
2022-09-28T10:02:11.617Z,23.40
2022-09-28T10:05:30.461Z,23.60
2022-09-28T10:08:39.093Z,23.60
2022-09-28T10:11:44.194Z,23.60
2022-09-28T10:14:49.325Z,23.60
2022-09-28T10:17:51.836Z,23.60
2022-09-28T10:21:13.183Z,23.40
2022-09-28T10:24:31.710Z,23.60
2022-09-28T10:27:35.390Z,23.60
2022-09-28T10:30:43.566Z,23.60
2022-09-28T10:33:45.494Z,23.60
2022-09-28T10:36:51.965Z,23.60
2022-09-28T10:39:55.726Z,23.60
2022-09-28T10:43:01.836Z,23.60
2022-09-28T10:46:06.869Z,23.20
2022-09-28T10:49:15.514Z,23.60
2022-09-28T10:52:32.881Z,23.60
2022-09-28T10:55:36.192Z,23.50
2022-09-28T10:58:41.133Z,23.60
2022-09-28T11:01:47.439Z,23.10
2022-09-28T11:04:53.575Z,23.60
2022-09-28T11:07:57.178Z,23.60
2022-09-28T11:11:09.877Z,23.60
2022-09-28T11:14:26.991Z,23.60
2022-09-28T11:17:33.270Z,23.60
2022-09-28T11:20:35.212Z,23.80
2022-09-28T11:23:41.567Z,23.80
2022-09-28T11:26:56.051Z,23.60
2022-09-28T11:29:59.946Z,23.60
2022-09-28T11:33:16.887Z,23.60
2022-09-28T11:36:42.908Z,23.30
2022-09-28T11:39:53.461Z,23.60
2022-09-28T11:43:07.639Z,23.60
2022-09-28T11:46:19.200Z,23.90
2022-09-28T11:49:33.519Z,23.60
2022-09-28T11:52:42.925Z,23.60
2022-09-28T11:55:49.509Z,23.40
2022-09-28T11:58:55.678Z,23.70
2022-09-28T12:02:20.311Z,23.40
2022-09-28T12:05:28.421Z,23.60
2022-09-28T12:08:34.483Z,23.40
2022-09-28T12:11:58.653Z,23.50
2022-09-28T12:15:25.354Z,23.70
2022-09-28T12:18:35.957Z,23.60
2022-09-28T12:21:45.838Z,23.60
2022-09-28T12:24:50.371Z,23.30
2022-09-28T12:27:57.070Z,23.40
2022-09-28T12:31:10.794Z,23.60
2022-09-28T12:34:12.432Z,23.50
2022-09-28T12:37:28.023Z,23.40
2022-09-28T12:40:37.359Z,23.70
2022-09-28T12:43:56.347Z,23.50
2022-09-28T12:47:18.527Z,23.30
2022-09-28T12:50:38.797Z,23.50
2022-09-28T12:54:01.685Z,23.50
2022-09-28T12:57:23.612Z,23.50
2022-09-28T13:00:31.443Z,23.20
2022-09-28T13:04:00.046Z,23.60
2022-09-28T13:07:05.896Z,23.50
2022-09-28T13:10:16.167Z,23.60
2022-09-28T13:13:33.838Z,23.60
2022-09-28T13:16:42.019Z,23.60
2022-09-28T13:19:52.077Z,23.50
2022-09-28T13:23:05.911Z,23.70
2022-09-28T13:26:15.011Z,23.30
2022-09-28T13:29:19.388Z,23.50
2022-09-28T13:32:23.456Z,23.40
2022-09-28T13:35:25.122Z,23.30
2022-09-28T13:38:49.497Z,23.40
2022-09-28T13:41:53.809Z,23.60
2022-09-28T13:45:17.250Z,23.50
2022-09-28T13:48:22.383Z,23.60
2022-09-28T13:51:37.617Z,23.50
2022-09-28T13:54:56.685Z,23.50
2022-09-28T13:58:04.006Z,23.60
2022-09-28T14:01:09.971Z,23.40
2022-09-28T14:04:17.601Z,23.50
2022-09-28T14:07:23.248Z,23.30
2022-09-28T14:10:46.392Z,23.50
2022-09-28T14:14:06.463Z,23.70
2022-09-28T14:17:37.615Z,23.20
2022-09-28T14:20:46.541Z,23.50
2022-09-28T14:24:10.970Z,23.50
2022-09-28T14:27:35.128Z,23.60
2022-09-28T14:30:53.337Z,23.50
2022-09-28T14:33:58.290Z,23.40
2022-09-28T14:37:16.463Z,23.50
2022-09-28T14:40:35.433Z,23.40
2022-09-28T14:43:58.068Z,23.40
2022-09-28T14:47:25.776Z,23.30
2022-09-28T14:50:28.747Z,23.50
2022-09-28T14:53:37.960Z,23.40
2022-09-28T14:56:42.800Z,23.20
2022-09-28T14:59:45.901Z,23.40
2022-09-28T15:02:51.726Z,23.50
2022-09-28T15:05:53.578Z,23.50
2022-09-28T15:08:55.772Z,23.30
2022-09-28T15:12:00.528Z,23.60
2022-09-28T15:15:07.423Z,23.30
2022-09-28T15:18:26.821Z,23.40
2022-09-28T15:21:34.900Z,23.50
2022-09-28T15:24:37.532Z,23.40
2022-09-28T15:27:40.694Z,23.40
2022-09-28T15:30:43.032Z,23.50
2022-09-28T15:33:59.455Z,23.70
2022-09-28T15:37:08.246Z,23.30
2022-09-28T15:40:13.458Z,23.60
2022-09-28T15:43:26.230Z,23.60
2022-09-28T15:46:34.282Z,23.60
2022-09-28T15:49:40.692Z,23.50
2022-09-28T15:52:46.372Z,23.60
2022-09-28T15:55:50.526Z,23.50
2022-09-28T15:59:08.233Z,23.20
2022-09-28T16:02:12.330Z,23.50
2022-09-28T16:05:35.241Z,23.60
2022-09-28T16:08:38.849Z,23.40
2022-09-28T16:11:40.798Z,23.60
2022-09-28T16:14:46.743Z,23.50
2022-09-28T16:17:52.268Z,23.20
2022-09-28T16:20:55.634Z,23.60
2022-09-28T16:23:57.398Z,23.50
2022-09-28T16:27:01.788Z,23.50
2022-09-28T16:30:16.038Z,23.70
2022-09-28T16:33:28.139Z,23.70
2022-09-28T16:36:42.742Z,23.30
2022-09-28T16:39:47.412Z,23.60
2022-09-28T16:42:49.560Z,23.60
2022-09-28T16:45:51.065Z,23.40
2022-09-28T16:48:54.546Z,23.50
2022-09-28T16:51:56.097Z,23.10
2022-09-28T16:55:22.899Z,23.50
2022-09-28T16:58:31.281Z,23.60
2022-09-28T17:01:32.733Z,23.60
2022-09-28T17:04:35.072Z,23.20
2022-09-28T17:07:36.730Z,23.30
2022-09-28T17:11:02.539Z,23.30
2022-09-28T17:14:04.626Z,23.80
2022-09-28T17:20:30.628Z,23.40
2022-09-28T17:23:32.554Z,23.70
2022-09-28T17:26:35.256Z,23.40
2022-09-28T17:29:36.673Z,23.60
2022-09-28T17:32:38.695Z,23.60
2022-09-28T17:35:42.155Z,23.30
2022-09-28T17:38:44.615Z,23.10
2022-09-28T17:41:46.338Z,23.30
2022-09-28T17:44:47.719Z,23.30
2022-09-28T17:47:49.202Z,23.10
2022-09-28T17:50:51.211Z,23.20
2022-09-28T17:53:53.622Z,23.10
2022-09-28T17:56:55.073Z,23.40
2022-09-28T17:59:57.585Z,23.30
2022-09-28T18:02:59.143Z,23.30
2022-09-28T18:06:05.710Z,23.40
2022-09-28T18:09:09.119Z,23.40
2022-09-28T18:12:10.681Z,23.40
2022-09-28T18:15:12.562Z,23.40
2022-09-28T18:18:14.172Z,23.40
2022-09-28T18:21:16.245Z,23.30
2022-09-28T18:24:17.740Z,23.50
2022-09-28T18:27:19.156Z,23.10
2022-09-28T18:30:20.407Z,23.40
2022-09-28T18:33:21.858Z,23.30
2022-09-28T18:36:28.309Z,23.30
2022-09-28T18:39:30.000Z,23.00
2022-09-28T18:42:34.702Z,23.30
2022-09-28T18:45:36.143Z,23.30
2022-09-28T18:48:39.515Z,23.20
2022-09-28T18:51:41.495Z,23.20
2022-09-28T18:54:43.207Z,23.10
2022-09-28T18:57:45.978Z,23.20
2022-09-28T19:00:47.719Z,23.30
2022-09-28T19:03:49.245Z,23.30
2022-09-28T19:06:51.762Z,23.20
2022-09-28T19:09:53.434Z,23.10
2022-09-28T19:12:54.995Z,23.30
2022-09-28T19:15:56.430Z,23.20
2022-09-28T19:19:00.547Z,23.20
2022-09-28T19:22:02.565Z,23.00
2022-09-28T19:25:04.579Z,23.00
2022-09-28T19:28:06.003Z,22.90
2022-09-28T19:31:08.391Z,23.10
2022-09-28T19:34:13.344Z,22.80
2022-09-28T19:37:16.425Z,22.90
2022-09-28T19:40:17.994Z,22.90
2022-09-28T19:43:20.467Z,22.60
2022-09-28T19:46:22.028Z,23.20
2022-09-28T19:49:25.399Z,22.70
2022-09-28T19:52:27.417Z,22.70
2022-09-28T19:55:30.982Z,23.00
2022-09-28T19:58:35.323Z,22.60
2022-09-28T20:01:36.942Z,22.90
2022-09-28T20:04:38.406Z,23.00
2022-09-28T20:07:40.359Z,23.10
2022-09-28T20:10:49.423Z,22.80
2022-09-28T20:13:52.423Z,23.00
2022-09-28T20:16:53.811Z,23.00
2022-09-28T20:19:58.266Z,23.00
2022-09-28T20:23:01.213Z,23.10
2022-09-28T20:26:03.854Z,22.70
2022-09-28T20:29:06.653Z,22.60
2022-09-28T20:32:08.297Z,22.60
2022-09-28T20:35:09.728Z,22.80
2022-09-28T20:38:12.091Z,22.70
2022-09-28T20:41:16.961Z,22.80
2022-09-28T20:44:18.608Z,22.90
2022-09-28T20:47:20.364Z,22.70
2022-09-28T20:50:22.131Z,22.90
2022-09-28T20:53:24.755Z,22.70
2022-09-28T20:56:28.156Z,23.00
2022-09-28T20:59:30.421Z,23.00
2022-09-28T21:02:31.960Z,22.70
2022-09-28T21:05:35.451Z,22.80
2022-09-28T21:08:37.532Z,23.00
2022-09-28T21:11:39.544Z,22.60
2022-09-28T21:14:41.084Z,22.80
2022-09-28T21:17:42.777Z,22.90
2022-09-28T21:20:45.790Z,22.80
2022-09-28T21:23:48.229Z,22.60
2022-09-28T21:26:49.750Z,22.80
2022-09-28T21:29:51.224Z,22.70
2022-09-28T21:32:52.547Z,23.20
2022-09-28T21:35:54.164Z,23.00
2022-09-28T21:38:56.536Z,22.70
2022-09-28T21:41:58.098Z,22.50
2022-09-28T21:45:02.686Z,22.70
2022-09-28T21:48:04.400Z,22.80
2022-09-28T21:51:08.350Z,23.00
2022-09-28T21:54:11.100Z,22.80
2022-09-28T21:57:12.631Z,22.50
2022-09-28T22:00:15.970Z,22.80
2022-09-28T22:03:17.521Z,22.40
2022-09-28T22:06:21.315Z,22.80
2022-09-28T22:09:23.526Z,22.50
2022-09-28T22:12:25.110Z,22.70
2022-09-28T22:15:26.691Z,22.70
2022-09-28T22:18:30.090Z,22.80
2022-09-28T22:21:34.101Z,22.70
2022-09-28T22:24:36.079Z,22.60
2022-09-28T22:27:38.384Z,22.90
2022-09-28T22:30:39.759Z,22.70
2022-09-28T22:33:41.091Z,22.80
2022-09-28T22:36:42.470Z,22.50
2022-09-28T22:39:44.419Z,22.40
2022-09-28T22:42:45.950Z,22.80
2022-09-28T22:45:50.473Z,22.80
2022-09-28T22:48:53.937Z,22.70
2022-09-28T22:51:55.449Z,22.80
2022-09-28T22:54:57.416Z,22.60
2022-09-28T22:57:58.956Z,22.50
2022-09-28T23:01:05.675Z,22.60
2022-09-28T23:04:09.009Z,22.70
2022-09-28T23:07:10.407Z,22.30
2022-09-28T23:10:15.451Z,22.60
2022-09-28T23:13:17.807Z,22.60
2022-09-28T23:16:20.017Z,22.20
2022-09-28T23:19:22.067Z,22.70
2022-09-28T23:22:23.668Z,22.60
2022-09-28T23:25:27.824Z,23.00
2022-09-28T23:28:29.310Z,22.70
2022-09-28T23:31:31.177Z,22.60
2022-09-28T23:34:32.652Z,22.20
2022-09-28T23:37:34.150Z,22.40
2022-09-28T23:40:36.374Z,22.20
2022-09-28T23:43:37.938Z,22.30
2022-09-28T23:46:39.596Z,22.50
2022-09-28T23:49:40.998Z,22.60
2022-09-28T23:52:42.320Z,22.50
2022-09-28T23:55:45.182Z,22.40
2022-09-28T23:58:46.761Z,22.60
